Time;durP1;ratioP1;P1;durP2;ratioP2;P2;SDS_P1;SDS_P2;PMS_P1;PMS_P2;Temp;Humidity;BMP_temperature;BMP_pressure;BME280_temperature;BME280_humidity;BME280_pressure;Samples;Min_cycle;Max_cycle;Signal;HPM_P1;HPM_P2
2023/10/02 00:01:10;;;;;;;17.47;13.20;;;13.00;99.90;;;;;;5074159;28;20198;-79
2023/10/02 00:03:39;;;;;;;16.83;12.90;;;12.90;99.90;;;;;;5064621;28;20195;-77
2023/10/02 00:06:07;;;;;;;15.97;13.97;;;12.80;99.90;;;;;;5072825;28;20310;-79
2023/10/02 00:08:42;;;;;;;15.27;12.53;;;12.70;99.90;;;;;;5073541;28;20190;-79
2023/10/02 00:11:35;;;;;;;16.03;13.00;;;12.70;99.90;;;;;;5072701;28;20685;-78
2023/10/02 00:14:19;;;;;;;15.17;12.40;;;12.70;99.90;;;;;;5069085;28;20229;-79
2023/10/02 00:16:59;;;;;;;15.83;13.43;;;12.70;99.90;;;;;;5065663;28;20656;-78
2023/10/02 00:19:35;;;;;;;15.13;13.27;;;12.70;99.90;;;;;;5071975;28;20226;-79
2023/10/02 00:22:05;;;;;;;13.47;12.07;;;12.70;99.90;;;;;;5069093;28;20198;-79
2023/10/02 00:24:37;;;;;;;15.47;13.27;;;12.70;99.90;;;;;;5071693;28;20981;-79
2023/10/02 00:27:04;;;;;;;16.43;12.87;;;12.70;99.90;;;;;;5073098;28;20282;-79
2023/10/02 00:29:32;;;;;;;14.10;12.70;;;12.70;99.90;;;;;;5064667;28;20210;-79
2023/10/02 00:31:59;;;;;;;14.93;13.20;;;12.70;99.90;;;;;;5071905;28;20213;-78
2023/10/02 00:34:33;;;;;;;15.03;13.07;;;12.60;99.90;;;;;;5067032;28;20262;-79
2023/10/02 00:37:05;;;;;;;14.77;13.07;;;12.60;99.90;;;;;;5071860;28;20207;-78
2023/10/02 00:39:34;;;;;;;16.77;13.70;;;12.50;99.90;;;;;;5071458;28;20279;-79
2023/10/02 00:44:56;;;;;;;17.17;13.13;;;12.50;99.90;;;;;;5072903;28;20217;-79
2023/10/02 00:47:42;;;;;;;15.60;12.77;;;12.50;99.90;;;;;;5071404;28;20205;-78
2023/10/02 00:50:10;;;;;;;16.47;13.63;;;12.50;99.90;;;;;;5071597;28;20198;-78
2023/10/02 00:52:40;;;;;;;17.43;14.03;;;12.50;99.90;;;;;;5067799;28;20221;-78
2023/10/02 00:55:10;;;;;;;18.17;13.47;;;12.50;99.90;;;;;;5072959;28;20727;-79
2023/10/02 00:57:39;;;;;;;17.63;14.10;;;12.40;99.90;;;;;;5071414;28;21173;-78
2023/10/02 01:00:16;;;;;;;16.60;14.53;;;12.40;99.90;;;;;;5071709;28;20209;-79
2023/10/02 01:02:45;;;;;;;15.93;13.67;;;12.30;99.90;;;;;;5063760;28;20197;-78
2023/10/02 01:05:15;;;;;;;21.23;14.10;;;12.30;99.90;;;;;;5071368;28;20369;-78
2023/10/02 01:07:42;;;;;;;15.97;13.47;;;12.30;99.90;;;;;;5072383;28;20194;-79
2023/10/02 01:10:20;;;;;;;15.17;13.60;;;12.30;99.90;;;;;;5067460;28;20629;-79
2023/10/02 01:12:50;;;;;;;14.50;12.90;;;12.30;99.90;;;;;;5071276;28;20209;-79
2023/10/02 01:15:20;;;;;;;15.10;13.53;;;12.30;99.90;;;;;;5065211;28;20253;-77
2023/10/02 01:17:51;;;;;;;16.30;13.80;;;12.30;99.90;;;;;;5064825;28;20197;-79
2023/10/02 01:20:35;;;;;;;15.40;13.30;;;12.40;99.90;;;;;;5072387;28;20197;-78
2023/10/02 01:23:16;;;;;;;15.23;13.10;;;12.30;99.90;;;;;;5065447;28;20227;-79
2023/10/02 01:25:45;;;;;;;18.10;13.00;;;12.30;99.90;;;;;;5071023;28;20221;-78
2023/10/02 01:28:15;;;;;;;15.50;13.13;;;12.20;99.90;;;;;;5070890;28;20235;-78
2023/10/02 01:30:44;;;;;;;16.77;14.17;;;12.20;99.90;;;;;;5071180;28;20197;-78
2023/10/02 01:33:17;;;;;;;14.13;12.53;;;12.20;99.90;;;;;;5071061;28;20242;-78
2023/10/02 01:35:49;;;;;;;15.07;13.10;;;12.10;99.90;;;;;;5070274;28;20795;-78
2023/10/02 01:38:21;;;;;;;15.23;13.07;;;12.10;99.90;;;;;;5072487;28;20201;-78
2023/10/02 01:40:53;;;;;;;15.80;13.20;;;12.10;99.90;;;;;;5064333;28;20234;-77
2023/10/02 01:43:23;;;;;;;16.70;14.17;;;12.10;99.90;;;;;;5071804;28;20201;-78
2023/10/02 01:45:56;;;;;;;16.27;14.57;;;12.10;99.90;;;;;;5065048;28;20566;-78
2023/10/02 01:48:45;;;;;;;17.00;14.03;;;12.10;99.90;;;;;;5070249;28;20202;-78
2023/10/02 01:51:25;;;;;;;17.97;14.20;;;12.10;99.90;;;;;;5070839;28;20267;-78
2023/10/02 01:53:54;;;;;;;14.87;13.20;;;12.10;99.90;;;;;;5080424;28;20225;-78
2023/10/02 01:56:25;;;;;;;15.07;13.00;;;12.10;99.90;;;;;;5071748;28;20238;-77
2023/10/02 01:58:53;;;;;;;15.97;13.97;;;12.20;99.90;;;;;;5070756;28;20740;-78
2023/10/02 02:01:22;;;;;;;15.27;13.33;;;12.10;99.90;;;;;;5070543;28;20224;-79
2023/10/02 02:03:50;;;;;;;15.17;13.60;;;12.10;99.90;;;;;;5066569;28;20199;-79
2023/10/02 02:06:20;;;;;;;16.63;14.13;;;12.10;99.90;;;;;;5073198;28;20215;-78
2023/10/02 02:08:53;;;;;;;18.13;13.63;;;12.10;99.90;;;;;;5076076;28;20198;-79
2023/10/02 02:11:21;;;;;;;16.20;13.47;;;12.10;99.90;;;;;;5076042;28;20672;-79
2023/10/02 02:13:51;;;;;;;16.13;14.43;;;12.10;99.90;;;;;;5074316;28;20232;-78
2023/10/02 02:16:25;;;;;;;16.03;14.33;;;12.10;99.90;;;;;;5074945;28;20233;-79
2023/10/02 02:18:54;;;;;;;16.33;13.87;;;12.20;99.90;;;;;;5074373;28;20236;-79
2023/10/02 02:21:24;;;;;;;16.77;15.00;;;12.20;99.90;;;;;;5074704;28;20270;-79
2023/10/02 02:24:03;;;;;;;15.70;14.20;;;12.20;99.90;;;;;;5072359;28;20192;-78
2023/10/02 02:26:31;;;;;;;14.83;13.43;;;12.30;99.90;;;;;;5075100;28;20225;-79
2023/10/02 02:29:00;;;;;;;15.00;13.50;;;12.30;99.90;;;;;;5074297;28;20289;-78
2023/10/02 02:31:30;;;;;;;14.83;13.03;;;12.30;99.90;;;;;;5075289;28;20225;-78
2023/10/02 02:33:59;;;;;;;15.60;13.47;;;12.30;99.90;;;;;;5073973;28;20214;-78
2023/10/02 02:36:27;;;;;;;17.53;13.90;;;12.30;99.90;;;;;;5068362;28;20279;-78
2023/10/02 02:39:15;;;;;;;14.93;13.43;;;12.30;99.90;;;;;;5066551;28;20672;-78
2023/10/02 02:41:43;;;;;;;15.97;14.37;;;12.30;99.90;;;;;;5075752;28;20195;-79
2023/10/02 02:46:55;;;;;;;15.37;12.87;;;12.20;99.90;;;;;;5065830;28;20213;-78
2023/10/02 02:49:23;;;;;;;15.13;12.00;;;12.20;99.90;;;;;;5074994;28;20199;-78
2023/10/02 02:51:50;;;;;;;15.07;13.30;;;12.10;99.90;;;;;;5074974;28;20252;-79
2023/10/02 02:54:17;;;;;;;14.13;11.47;;;12.10;99.90;;;;;;5071754;28;20222;-81
2023/10/02 02:56:45;;;;;;;13.77;11.97;;;12.00;99.90;;;;;;5077634;28;20267;-81
2023/10/02 02:59:13;;;;;;;13.70;12.07;;;12.00;99.90;;;;;;5070142;28;20206;-82
2023/10/02 03:01:40;;;;;;;14.63;13.13;;;12.00;99.90;;;;;;5075937;28;20225;-81
2023/10/02 03:04:12;;;;;;;13.83;12.33;;;11.90;99.90;;;;;;5075671;28;20201;-81
2023/10/02 03:06:41;;;;;;;14.37;12.60;;;11.90;99.90;;;;;;5077359;28;20217;-80
2023/10/02 03:09:09;;;;;;;14.17;12.07;;;11.80;99.90;;;;;;5093317;28;20230;-81
2023/10/02 03:11:38;;;;;;;14.00;12.50;;;11.80;99.90;;;;;;5075270;28;20206;-79
2023/10/02 03:14:13;;;;;;;15.73;14.13;;;11.70;99.90;;;;;;5072871;28;20261;-78
2023/10/02 03:16:44;;;;;;;14.83;13.33;;;11.70;99.90;;;;;;5074299;28;20200;-79
2023/10/02 03:19:13;;;;;;;14.77;13.20;;;11.70;99.90;;;;;;5064952;28;20212;-79
2023/10/02 03:21:42;;;;;;;14.77;12.83;;;11.60;99.90;;;;;;5071525;28;20720;-80
2023/10/02 03:24:12;;;;;;;16.03;14.33;;;11.60;99.90;;;;;;5071898;28;20255;-79
2023/10/02 03:26:39;;;;;;;14.50;13.10;;;11.50;99.90;;;;;;5075073;28;20211;-82
2023/10/02 03:29:11;;;;;;;14.50;13.13;;;11.50;99.90;;;;;;5068634;28;20214;-81
2023/10/02 03:31:43;;;;;;;17.73;15.40;;;11.40;99.90;;;;;;5074163;28;20569;-82
2023/10/02 03:34:33;;;;;;;19.13;14.53;;;11.30;99.90;;;;;;5074736;28;20566;-79
2023/10/02 03:37:08;;;;;;;17.83;16.00;;;11.30;99.90;;;;;;5067391;28;20249;-80
2023/10/02 03:39:59;;;;;;;15.40;10.73;;;11.20;99.90;;;;;;5075766;28;20199;-80
2023/10/02 03:42:28;;;;;;;18.40;16.50;;;11.20;99.90;;;;;;5071969;28;20287;-81
2023/10/02 03:44:57;;;;;;;17.07;15.27;;;11.20;99.90;;;;;;5078404;28;20639;-81
2023/10/02 03:47:24;;;;;;;16.53;14.73;;;11.10;99.90;;;;;;5077448;28;20687;-77
2023/10/02 03:50:00;;;;;;;18.53;16.43;;;11.10;99.90;;;;;;5078485;28;20203;-80
2023/10/02 03:52:28;;;;;;;16.70;15.10;;;11.10;99.90;;;;;;5076665;28;20266;-80
2023/10/02 03:54:55;;;;;;;16.73;15.07;;;11.10;99.90;;;;;;5076929;28;20234;-79
2023/10/02 03:57:47;;;;;;;17.47;15.70;;;11.10;99.90;;;;;;5073408;28;20253;-79
2023/10/02 04:00:18;;;;;;;17.03;15.23;;;11.00;99.90;;;;;;5075686;28;20407;-79
2023/10/02 04:02:46;;;;;;;17.07;15.27;;;11.00;99.90;;;;;;5077144;28;20573;-79
2023/10/02 04:05:30;;;;;;;17.07;15.27;;;10.90;99.90;;;;;;5076257;28;20225;-78
2023/10/02 04:08:12;;;;;;;18.77;16.37;;;10.90;99.90;;;;;;5076201;28;20224;-81
2023/10/02 04:10:55;;;;;;;19.60;16.43;;;10.90;99.90;;;;;;5077068;28;20256;-81
2023/10/02 04:13:25;;;;;;;15.13;10.83;;;10.90;99.90;;;;;;5073352;28;20218;-79
2023/10/02 04:16:16;;;;;;;14.37;9.03;;;10.80;99.90;;;;;;5075963;28;20231;-80
2023/10/02 04:18:46;;;;;;;14.43;8.50;;;10.80;99.90;;;;;;5074760;28;20283;-80
2023/10/02 04:21:14;;;;;;;14.00;8.80;;;10.80;99.90;;;;;;5073307;28;20223;-77
2023/10/02 04:23:42;;;;;;;13.27;7.47;;;10.80;99.90;;;;;;5076288;28;20215;-77
2023/10/02 04:26:19;;;;;;;12.47;8.27;;;10.80;99.90;;;;;;5075413;28;20214;-77
2023/10/02 04:28:55;;;;;;;14.03;8.57;;;10.80;99.90;;;;;;5074566;28;20196;-78
2023/10/02 04:31:23;;;;;;;13.67;9.33;;;10.80;99.90;;;;;;5075125;28;20244;-77
2023/10/02 04:34:15;;;;;;;14.30;8.87;;;10.80;99.90;;;;;;5074538;28;20212;-76
2023/10/02 04:36:44;;;;;;;12.80;8.60;;;10.80;99.90;;;;;;5075744;28;20188;-77
2023/10/02 04:44:56;;;;;;;16.67;9.13;;;10.90;99.90;;;;;;5104603;28;20558;-78
2023/10/02 04:47:26;;;;;;;15.37;9.30;;;10.90;99.90;;;;;;5081379;28;20203;-77
2023/10/02 04:52:56;;;;;;;12.23;10.47;;;10.80;99.90;;;;;;5078781;28;20192;-77
2023/10/02 04:55:25;;;;;;;13.60;9.70;;;10.80;99.90;;;;;;5083546;28;20272;-77
2023/10/02 04:57:54;;;;;;;13.87;8.87;;;10.90;99.90;;;;;;5082761;28;20200;-78
2023/10/02 05:00:33;;;;;;;12.27;8.30;;;10.80;99.90;;;;;;5085459;28;20242;-77
2023/10/02 05:03:09;;;;;;;15.33;9.17;;;10.80;99.90;;;;;;5081513;28;20701;-77
2023/10/02 05:05:42;;;;;;;14.47;9.33;;;10.80;99.90;;;;;;5078680;28;20762;-77
2023/10/02 05:08:18;;;;;;;15.00;10.17;;;10.80;99.90;;;;;;5077780;28;20199;-77
2023/10/02 05:10:47;;;;;;;12.93;8.90;;;10.80;99.90;;;;;;5085097;28;20676;-77
2023/10/02 05:13:13;;;;;;;12.97;8.97;;;10.70;99.90;;;;;;5085207;28;20195;-76
2023/10/02 05:16:06;;;;;;;14.50;9.87;;;10.70;99.90;;;;;;5084549;28;20216;-77
2023/10/02 05:18:33;;;;;;;16.97;10.33;;;10.70;99.90;;;;;;5078201;28;20256;-77
2023/10/02 05:21:01;;;;;;;14.87;9.27;;;10.70;99.90;;;;;;5074434;28;20636;-77
2023/10/02 05:23:30;;;;;;;13.03;9.13;;;10.60;99.90;;;;;;5084944;28;20736;-77
2023/10/02 05:26:02;;;;;;;17.47;10.10;;;10.60;99.90;;;;;;5085337;28;20218;-77
2023/10/02 05:28:42;;;;;;;16.93;9.83;;;10.60;99.90;;;;;;5083332;28;20688;-77
2023/10/02 05:31:12;;;;;;;15.20;10.20;;;10.50;99.90;;;;;;5082914;28;20202;-77
2023/10/02 05:33:39;;;;;;;18.73;11.33;;;10.50;99.90;;;;;;5083813;28;20273;-77
2023/10/02 05:36:08;;;;;;;16.33;10.57;;;10.60;99.90;;;;;;5080152;28;20214;-77
2023/10/02 05:38:36;;;;;;;16.13;10.13;;;10.60;99.90;;;;;;5081437;28;20624;-77
2023/10/02 05:41:03;;;;;;;16.43;10.97;;;10.60;99.90;;;;;;5088276;28;20222;-77
2023/10/02 05:43:31;;;;;;;20.17;11.83;;;10.60;99.90;;;;;;5085078;28;20218;-76
2023/10/02 05:46:01;;;;;;;17.10;10.70;;;10.60;99.90;;;;;;5081452;28;20241;-77
2023/10/02 05:48:31;;;;;;;17.97;10.47;;;10.50;99.90;;;;;;5087391;28;20261;-77
2023/10/02 05:50:59;;;;;;;16.60;10.47;;;10.50;99.90;;;;;;5077620;28;20618;-77
2023/10/02 05:53:29;;;;;;;15.27;9.67;;;10.50;99.90;;;;;;5083987;28;20788;-77
2023/10/02 05:56:05;;;;;;;17.20;10.30;;;10.60;99.90;;;;;;5071917;28;20239;-76
2023/10/02 05:58:32;;;;;;;12.73;9.70;;;10.60;99.90;;;;;;5065758;28;20201;-77
2023/10/02 06:01:03;;;;;;;18.53;10.37;;;10.70;99.90;;;;;;5071446;28;20629;-77
2023/10/02 06:03:34;;;;;;;16.83;10.33;;;10.70;99.90;;;;;;5070759;28;20588;-77
2023/10/02 06:06:21;;;;;;;17.27;10.80;;;10.70;99.90;;;;;;5060417;28;20547;-77
2023/10/02 06:08:49;;;;;;;14.87;10.33;;;10.80;99.90;;;;;;5071649;28;20279;-77
2023/10/02 06:11:26;;;;;;;15.40;10.33;;;10.90;99.90;;;;;;5071933;28;20563;-77
2023/10/02 06:13:55;;;;;;;11.83;8.40;;;10.90;99.90;;;;;;5062985;28;20196;-77
2023/10/02 06:16:24;;;;;;;13.37;9.30;;;11.10;99.90;;;;;;5069232;28;20207;-77
2023/10/02 06:19:01;;;;;;;13.20;8.67;;;11.20;99.90;;;;;;5072602;28;20213;-76
2023/10/02 06:21:32;;;;;;;11.33;8.27;;;11.30;99.90;;;;;;5065683;28;20208;-82
2023/10/02 06:23:59;;;;;;;13.13;9.37;;;11.40;99.90;;;;;;5062362;28;20239;-80
2023/10/02 06:26:30;;;;;;;11.57;8.03;;;11.60;99.90;;;;;;5062078;28;20212;-80
2023/10/02 06:29:16;;;;;;;11.27;8.87;;;11.70;99.90;;;;;;5074739;28;20242;-81
2023/10/02 06:31:42;;;;;;;14.23;8.90;;;11.90;99.90;;;;;;5074151;28;20196;-81
2023/10/02 06:34:12;;;;;;;14.60;11.87;;;12.00;99.90;;;;;;5067482;28;20202;-80
2023/10/02 06:36:47;;;;;;;9.73;6.70;;;12.10;99.90;;;;;;5059325;28;20235;-81
2023/10/02 06:39:17;;;;;;;12.10;7.27;;;12.20;99.90;;;;;;5070518;28;20207;-80
2023/10/02 06:41:45;;;;;;;10.47;9.13;;;12.20;99.90;;;;;;5056689;28;20198;-77
2023/10/02 06:44:20;;;;;;;9.27;7.67;;;12.20;99.90;;;;;;5042671;28;20223;-78
2023/10/02 06:46:55;;;;;;;9.57;6.90;;;12.30;99.90;;;;;;5055447;28;20220;-77
2023/10/02 06:49:23;;;;;;;12.37;8.20;;;12.30;99.90;;;;;;5060624;28;20212;-78
2023/10/02 06:51:51;;;;;;;11.93;10.73;;;12.40;99.90;;;;;;5048215;28;20253;-78
2023/10/02 06:54:19;;;;;;;12.47;10.80;;;12.40;99.90;;;;;;5053034;28;20541;-78
2023/10/02 06:56:46;;;;;;;9.40;6.73;;;12.50;99.90;;;;;;5048649;28;20297;-77
2023/10/02 06:59:13;;;;;;;13.20;9.00;;;12.70;99.90;;;;;;5050180;28;20226;-80
2023/10/02 07:02:04;;;;;;;11.47;8.03;;;12.90;99.90;;;;;;5067215;28;20229;-81
2023/10/02 07:04:30;;;;;;;14.67;13.20;;;13.20;99.90;;;;;;5046282;28;20214;-77
2023/10/02 07:07:03;;;;;;;11.27;9.20;;;13.50;99.90;;;;;;5058232;28;20193;-77
2023/10/02 07:09:34;;;;;;;12.67;10.80;;;13.80;99.90;;;;;;5047534;28;20203;-78
2023/10/02 07:12:09;;;;;;;11.90;7.93;;;14.20;99.90;;;;;;5056396;28;20212;-78
2023/10/02 07:14:37;;;;;;;10.97;7.23;;;14.50;99.90;;;;;;5060061;28;20239;-78
2023/10/02 07:17:16;;;;;;;11.43;7.73;;;14.90;99.90;;;;;;5053838;28;20702;-78
2023/10/02 07:19:51;;;;;;;13.63;12.23;;;15.40;99.90;;;;;;5051496;28;20209;-77
2023/10/02 07:22:23;;;;;;;11.60;7.57;;;15.80;99.90;;;;;;5056300;28;20196;-78
2023/10/02 07:24:52;;;;;;;12.77;8.83;;;16.30;99.90;;;;;;5057069;28;20263;-78
2023/10/02 07:27:26;;;;;;;13.43;8.70;;;16.80;99.90;;;;;;5049279;28;20707;-78
2023/10/02 07:29:55;;;;;;;16.60;11.67;;;17.20;99.90;;;;;;5045772;28;20242;-78
2023/10/02 07:32:23;;;;;;;16.30;9.73;;;17.60;99.90;;;;;;5053835;28;20260;-79
2023/10/02 07:34:53;;;;;;;18.83;13.70;;;17.80;99.90;;;;;;5040846;28;20212;-81
2023/10/02 07:37:24;;;;;;;14.73;9.80;;;18.30;99.90;;;;;;5051019;28;20674;-81
2023/10/02 07:39:58;;;;;;;14.63;10.40;;;18.70;99.90;;;;;;5048640;28;20195;-79
2023/10/02 07:42:28;;;;;;;13.20;8.00;;;19.00;99.90;;;;;;5039900;28;20204;-79
2023/10/02 07:45:11;;;;;;;14.77;9.87;;;19.30;99.90;;;;;;5048377;28;20747;-80
2023/10/02 07:47:55;;;;;;;14.73;9.73;;;19.50;99.90;;;;;;5047368;28;20205;-84
2023/10/02 07:50:33;;;;;;;16.60;8.93;;;19.50;99.90;;;;;;5056798;28;20263;-79
2023/10/02 07:53:04;;;;;;;14.87;9.03;;;19.60;99.90;;;;;;5043449;28;20204;-82
2023/10/02 07:55:43;;;;;;;15.43;9.37;;;19.90;99.90;;;;;;5041930;28;20227;-83
2023/10/02 07:58:13;;;;;;;15.27;9.73;;;20.10;99.90;;;;;;5052729;28;20195;-81
2023/10/02 08:00:40;;;;;;;14.97;9.50;;;20.30;99.90;;;;;;5050765;28;20203;-81
2023/10/02 08:03:29;;;;;;;13.67;8.90;;;20.60;99.90;;;;;;5039004;28;20205;-80
2023/10/02 08:05:58;;;;;;;13.77;9.40;;;20.90;99.90;;;;;;5054996;28;20255;-83
2023/10/02 08:08:31;;;;;;;16.10;10.20;;;21.00;99.90;;;;;;5049102;28;20198;-83
2023/10/02 08:11:06;;;;;;;14.17;9.67;;;21.00;99.90;;;;;;5053765;28;20192;-83
2023/10/02 08:13:36;;;;;;;15.00;9.20;;;21.00;99.90;;;;;;5050448;28;20206;-82
2023/10/02 08:16:07;;;;;;;13.53;10.50;;;21.00;99.90;;;;;;5047583;28;20223;-82
2023/10/02 08:18:55;;;;;;;14.63;11.60;;;21.30;99.90;;;;;;5054788;28;20685;-81
2023/10/02 08:21:34;;;;;;;16.57;11.80;;;21.30;99.90;;;;;;5041252;28;20191;-82
2023/10/02 08:24:04;;;;;;;16.03;11.43;;;21.40;99.90;;;;;;5044125;28;20226;-83
2023/10/02 08:26:40;;;;;;;17.17;9.63;;;21.60;99.90;;;;;;5044071;28;20232;-82
2023/10/02 08:29:10;;;;;;;16.43;12.03;;;21.90;99.90;;;;;;5046683;28;20207;-83
2023/10/02 08:31:42;;;;;;;17.70;10.33;;;22.00;99.90;;;;;;5047902;28;20199;-82
2023/10/02 08:34:12;;;;;;;18.33;10.67;;;22.10;99.90;;;;;;5046118;28;20702;-82
2023/10/02 08:36:41;;;;;;;17.00;10.33;;;22.00;99.90;;;;;;5053257;28;20214;-82
2023/10/02 08:39:09;;;;;;;16.13;9.37;;;22.30;99.90;;;;;;5049414;28;20192;-83
2023/10/02 08:41:43;;;;;;;15.30;10.40;;;22.50;99.90;;;;;;5045260;28;20283;-85
2023/10/02 08:44:12;;;;;;;17.23;10.43;;;22.60;99.90;;;;;;5041006;28;20202;-84
2023/10/02 08:46:42;;;;;;;13.13;9.03;;;22.70;99.90;;;;;;5050535;28;20252;-86
2023/10/02 08:49:11;;;;;;;14.83;9.63;;;22.90;99.90;;;;;;5050203;28;20202;-85
2023/10/02 08:51:48;;;;;;;17.53;13.17;;;23.10;99.90;;;;;;5044792;28;20282;-84
2023/10/02 08:54:15;;;;;;;17.83;15.87;;;23.10;99.90;;;;;;5045386;28;20222;-80
2023/10/02 08:56:44;;;;;;;15.00;9.63;;;23.30;99.90;;;;;;5039482;28;20204;-80
2023/10/02 08:59:26;;;;;;;13.70;9.10;;;23.50;99.90;;;;;;5040768;28;20191;-82
2023/10/02 09:02:11;;;;;;;14.37;9.73;;;23.60;99.90;;;;;;5046339;28;20621;-80
2023/10/02 09:04:38;;;;;;;14.83;11.23;;;23.80;99.90;;;;;;5045923;28;20238;-79
2023/10/02 09:07:22;;;;;;;17.07;14.80;;;23.80;99.90;;;;;;5048442;28;20199;-80
2023/10/02 09:09:55;;;;;;;16.07;14.37;;;24.00;99.90;;;;;;5046440;28;20202;-77
2023/10/02 09:12:22;;;;;;;17.47;10.87;;;24.10;99.90;;;;;;5051231;28;20246;-80
2023/10/02 09:14:52;;;;;;;20.70;15.43;;;24.00;99.90;;;;;;5048276;28;20322;-80
2023/10/02 09:17:19;;;;;;;17.10;14.47;;;24.00;99.90;;;;;;5050832;28;20202;-80
2023/10/02 09:19:54;;;;;;;19.13;15.30;;;24.10;99.90;;;;;;5048534;28;20200;-81
2023/10/02 09:22:25;;;;;;;18.10;12.30;;;24.10;99.90;;;;;;5052566;28;20230;-80
2023/10/02 09:25:12;;;;;;;19.83;14.17;;;24.20;99.90;;;;;;5042318;28;20583;-78
2023/10/02 09:27:54;;;;;;;20.93;12.87;;;24.40;99.90;;;;;;5042806;28;20270;-80
2023/10/02 09:30:36;;;;;;;22.10;13.10;;;24.50;99.90;;;;;;5045584;28;20339;-80
2023/10/02 09:33:10;;;;;;;18.87;15.33;;;24.60;99.90;;;;;;5051421;28;20204;-80
2023/10/02 09:35:42;;;;;;;20.57;14.57;;;24.90;99.90;;;;;;5044831;28;20634;-82
2023/10/02 09:38:12;;;;;;;23.17;12.20;;;25.10;99.90;;;;;;5053202;28;20227;-81
2023/10/02 09:40:54;;;;;;;18.23;11.33;;;24.90;99.90;;;;;;5052860;28;20234;-78
2023/10/02 09:43:23;;;;;;;18.40;11.47;;;24.90;99.90;;;;;;5049296;28;20222;-81
2023/10/02 09:45:53;;;;;;;19.43;13.17;;;24.90;99.90;;;;;;5052499;28;20219;-80
2023/10/02 09:48:53;;;;;;;19.87;15.03;;;24.90;99.90;;;;;;5047215;28;20214;-79
2023/10/02 09:51:27;;;;;;;18.93;15.60;;;25.00;99.90;;;;;;5051961;28;20280;-80
2023/10/02 09:54:09;;;;;;;18.37;10.87;;;24.90;99.90;;;;;;5052518;28;20191;-80
2023/10/02 09:57:11;;;;;;;14.43;10.27;;;24.80;99.90;;;;;;5046193;28;20211;-82
2023/10/02 09:59:45;;;;;;;16.40;10.50;;;24.70;99.90;;;;;;5057611;28;20259;-79
2023/10/02 10:08:28;;;;;;;18.67;13.70;;;24.20;99.90;;;;;;5069742;28;20198;-80
2023/10/02 10:10:58;;;;;;;16.10;10.67;;;24.20;99.90;;;;;;5069964;28;20301;-80
2023/10/02 10:13:27;;;;;;;19.17;11.23;;;24.30;99.90;;;;;;5072605;28;20194;-80
2023/10/02 10:16:29;;;;;;;16.90;10.77;;;24.40;99.90;;;;;;5064630;28;20235;-80
2023/10/02 10:22:04;;;;;;;19.27;14.90;;;24.30;99.90;;;;;;5114472;27;20534;-78
2023/10/02 10:24:56;;;;;;;18.27;12.40;;;24.40;99.90;;;;;;5111496;28;20217;-81
2023/10/02 10:28:00;;;;;;;18.47;10.50;;;24.40;99.90;;;;;;5094598;28;20351;-80
2023/10/02 10:30:44;;;;;;;16.27;10.70;;;24.40;99.90;;;;;;5095743;28;20732;-79
2023/10/02 10:33:36;;;;;;;18.40;11.83;;;24.40;99.90;;;;;;5092515;28;20549;-80
2023/10/02 10:36:13;;;;;;;19.57;13.33;;;24.40;99.90;;;;;;5093573;28;20599;-80
2023/10/02 10:38:46;;;;;;;17.43;12.00;;;24.30;99.90;;;;;;5090768;28;20197;-78
2023/10/02 10:41:31;;;;;;;18.33;13.93;;;24.30;99.90;;;;;;5090910;28;20214;-78
2023/10/02 10:44:06;;;;;;;17.23;11.40;;;24.30;99.90;;;;;;5091459;28;20275;-80
2023/10/02 10:46:37;;;;;;;15.07;9.83;;;24.30;99.90;;;;;;5099454;28;20619;-82
2023/10/02 10:49:08;;;;;;;21.07;10.07;;;24.30;99.90;;;;;;5097889;28;20201;-82
2023/10/02 10:51:36;;;;;;;16.67;10.80;;;24.20;99.90;;;;;;5107277;28;20200;-82
2023/10/02 10:54:19;;;;;;;16.77;12.17;;;24.10;99.90;;;;;;5101619;28;20204;-82
2023/10/02 10:56:58;;;;;;;18.00;13.93;;;24.10;99.90;;;;;;5098669;28;20288;-83
2023/10/02 10:59:32;;;;;;;19.20;13.97;;;24.10;99.90;;;;;;5106436;28;20250;-81
2023/10/02 11:02:12;;;;;;;18.27;14.37;;;24.20;99.90;;;;;;5101274;28;20236;-79
2023/10/02 11:04:40;;;;;;;18.27;14.30;;;24.10;99.90;;;;;;5088992;28;20228;-81
2023/10/02 11:07:21;;;;;;;15.47;12.80;;;24.10;99.90;;;;;;5088937;28;20197;-80
2023/10/02 11:12:56;;;;;;;17.37;13.70;;;24.00;99.90;;;;;;5071193;28;20955;-80
2023/10/02 11:18:18;;;;;;;15.40;13.43;;;24.00;99.90;;;;;;5046346;28;20199;-80
2023/10/02 11:20:49;;;;;;;16.10;13.67;;;24.00;99.90;;;;;;5048750;28;20199;-80
2023/10/02 11:23:23;;;;;;;17.27;13.00;;;24.00;99.90;;;;;;5049739;28;20192;-80
2023/10/02 11:25:56;;;;;;;15.63;12.97;;;24.10;99.90;;;;;;5049017;28;20599;-80
2023/10/02 11:28:34;;;;;;;16.10;13.43;;;24.10;99.90;;;;;;5045706;28;20704;-81
2023/10/02 11:31:29;;;;;;;14.87;12.47;;;24.00;99.90;;;;;;5049659;28;20694;-80
2023/10/02 11:34:14;;;;;;;14.67;11.97;;;24.10;99.90;;;;;;5057771;28;20237;-81
2023/10/02 11:36:52;;;;;;;20.03;14.53;;;24.10;99.90;;;;;;5047048;28;20203;-80
2023/10/02 11:39:20;;;;;;;16.83;12.90;;;24.00;99.90;;;;;;5048135;28;20249;-81
2023/10/02 11:41:47;;;;;;;17.50;13.40;;;24.00;99.90;;;;;;5049279;28;20191;-80
2023/10/02 11:44:16;;;;;;;16.00;11.90;;;24.00;99.90;;;;;;5047706;28;20206;-80
2023/10/02 11:46:43;;;;;;;17.80;13.57;;;24.00;99.90;;;;;;5047545;28;20207;-80
2023/10/02 11:49:12;;;;;;;16.87;13.37;;;24.10;99.90;;;;;;5048806;28;20195;-79
2023/10/02 11:51:39;;;;;;;18.00;13.37;;;24.20;99.90;;;;;;5047513;28;20218;-79
2023/10/02 11:54:09;;;;;;;16.60;12.43;;;24.20;99.90;;;;;;5048469;28;20575;-79
2023/10/02 11:56:38;;;;;;;19.27;11.97;;;24.30;99.90;;;;;;5048172;28;20445;-80
2023/10/02 11:59:07;;;;;;;16.80;13.67;;;24.30;99.90;;;;;;5047700;28;20203;-82
2023/10/02 12:01:35;;;;;;;17.73;13.37;;;24.30;99.90;;;;;;5064966;28;20291;-82
2023/10/02 12:04:04;;;;;;;16.53;13.63;;;24.40;99.90;;;;;;5064809;28;20199;-79
2023/10/02 12:06:31;;;;;;;17.30;11.50;;;24.50;99.90;;;;;;5044216;28;20227;-80
2023/10/02 12:08:58;;;;;;;18.80;12.73;;;24.50;99.90;;;;;;5046648;28;20199;-80
2023/10/02 12:11:25;;;;;;;19.43;13.57;;;24.50;99.90;;;;;;5043429;28;20231;-80
2023/10/02 12:13:53;;;;;;;21.07;14.60;;;24.50;99.90;;;;;;5047446;28;20637;-80
2023/10/02 12:16:21;;;;;;;19.87;12.77;;;24.60;99.90;;;;;;5049273;28;20225;-81
2023/10/02 12:18:50;;;;;;;23.00;14.70;;;24.50;99.90;;;;;;5047336;28;20195;-81
2023/10/02 12:21:19;;;;;;;22.90;15.33;;;24.60;99.90;;;;;;5047387;28;20307;-80
2023/10/02 12:23:46;;;;;;;23.80;17.03;;;24.60;99.90;;;;;;5034911;28;20199;-81
2023/10/02 12:26:14;;;;;;;23.53;17.40;;;24.60;99.90;;;;;;5036516;28;20219;-78
2023/10/02 12:28:42;;;;;;;25.93;17.00;;;24.60;99.90;;;;;;5034394;28;20200;-81
2023/10/02 12:31:10;;;;;;;29.43;18.63;;;24.70;99.90;;;;;;5035895;28;20219;-81
2023/10/02 12:33:38;;;;;;;25.07;17.37;;;24.80;99.80;;;;;;5035563;28;20211;-81
2023/10/02 12:36:17;;;;;;;25.83;17.40;;;24.80;99.90;;;;;;5034788;28;20265;-82
2023/10/02 12:38:44;;;;;;;24.50;16.97;;;24.80;99.90;;;;;;5036302;28;20199;-81
2023/10/02 12:41:13;;;;;;;22.20;15.50;;;24.80;99.90;;;;;;5035973;28;20199;-80
2023/10/02 12:43:58;;;;;;;21.73;15.80;;;24.80;99.90;;;;;;5051388;28;20207;-82
2023/10/02 12:46:50;;;;;;;21.47;16.27;;;24.80;99.90;;;;;;5034111;28;20219;-82
2023/10/02 12:49:25;;;;;;;23.40;15.73;;;24.90;99.90;;;;;;5030636;28;20204;-82
2023/10/02 12:51:57;;;;;;;23.70;16.00;;;24.90;99.70;;;;;;5036752;28;20708;-82
2023/10/02 12:54:25;;;;;;;24.00;15.77;;;24.90;98.90;;;;;;5035788;28;20200;-82
2023/10/02 12:56:55;;;;;;;22.60;15.83;;;25.00;99.80;;;;;;5033890;28;20292;-82
2023/10/02 12:59:23;;;;;;;22.20;16.43;;;25.00;99.20;;;;;;5033214;28;20210;-83
2023/10/02 13:02:15;;;;;;;22.13;15.37;;;25.00;99.90;;;;;;5045148;28;20283;-84
2023/10/02 13:05:04;;;;;;;22.23;15.60;;;25.00;99.20;;;;;;4972395;28;20739;-83
2023/10/02 13:07:35;;;;;;;18.87;14.43;;;25.00;99.70;;;;;;5007267;28;20196;-82
2023/10/02 13:10:06;;;;;;;20.07;15.00;;;25.00;99.80;;;;;;5050838;28;20257;-83
2023/10/02 13:19:16;;;;;;;18.70;13.93;;;25.10;99.90;;;;;;4993380;28;20205;-90
2023/10/02 13:22:11;;;;;;;;;;;;;;;;;;;;;
2023/10/02 13:24:45;;;;;;;18.17;14.30;;;25.10;99.30;;;;;;5002089;28;20370;-86
2023/10/02 13:27:16;;;;;;;17.47;13.53;;;25.10;99.60;;;;;;4989511;28;20208;-82
2023/10/02 13:29:43;;;;;;;18.60;13.80;;;25.10;99.80;;;;;;5054416;22;20776;-78
2023/10/02 13:32:10;;;;;;;19.07;13.93;;;25.10;99.70;;;;;;5015602;28;20225;-80
2023/10/02 13:34:36;;;;;;;16.53;13.07;;;25.00;99.90;;;;;;5014499;28;20243;-79
2023/10/02 13:37:05;;;;;;;18.43;13.27;;;25.10;99.90;;;;;;5010967;28;20271;-79